Time;durP1;ratioP1;P1;durP2;ratioP2;P2;SDS_P1;SDS_P2;PMS_P1;PMS_P2;Temp;Humidity;BMP_temperature;BMP_pressure;BME280_temperature;BME280_humidity;BME280_pressure;Samples;Min_cycle;Max_cycle;Signal;HPM_P1;HPM_P2
2023/09/20 00:01:22;;;;;;;;;;;;;;;25.31;79.96;97093.66;5062194;28;20058;-89
2023/09/20 00:04:07;;;;;;;2.72;1.38;;;;;;;25.15;80.34;97078.25;5060848;28;19919;-86
2023/09/20 00:06:52;;;;;;;2.95;1.33;;;;;;;25.23;79.81;97088.06;5056733;28;20060;-86
2023/09/20 00:09:38;;;;;;;5.68;1.92;;;;;;;24.73;81.03;97086.53;5063130;28;20050;-85
2023/09/20 00:12:22;;;;;;;2.67;1.42;;;;;;;25.20;80.26;97112.94;5064126;28;20051;-87
2023/09/20 00:15:07;;;;;;;5.95;2.00;;;;;;;25.52;78.95;97102.34;5056832;28;20548;-88
2023/09/20 00:17:54;;;;;;;3.88;1.60;;;;;;;25.55;79.61;97108.13;5063590;28;20094;-88
2023/09/20 00:20:39;;;;;;;3.75;1.60;;;;;;;25.36;79.92;97106.84;5036264;28;20092;-89
2023/09/20 00:23:24;;;;;;;6.03;1.60;;;;;;;25.40;79.70;97094.31;5045922;28;20090;-88
2023/09/20 00:26:08;;;;;;;5.32;1.60;;;;;;;25.58;79.29;97091.38;5067231;28;20125;-87
2023/09/20 00:28:51;;;;;;;5.18;1.50;;;;;;;25.42;79.08;97091.25;5072697;28;20058;-86
2023/09/20 00:31:37;;;;;;;3.58;1.60;;;;;;;25.01;80.01;97065.19;5060853;28;20039;-88
2023/09/20 00:34:22;;;;;;;3.60;1.60;;;;;;;24.84;81.18;97068.91;5067739;28;20083;-88
2023/09/20 00:37:07;;;;;;;4.90;1.50;;;;;;;24.94;81.92;97081.09;5062158;28;20068;-86
2023/09/20 00:39:51;;;;;;;2.20;1.48;;;;;;;25.62;80.45;97084.19;5063252;28;20046;-86
2023/09/20 00:42:35;;;;;;;2.10;1.15;;;;;;;24.89;81.59;97079.41;5065884;28;20441;-89
2023/09/20 00:45:19;;;;;;;1.77;1.40;;;;;;;25.23;81.40;97071.97;5056564;28;20090;-88
2023/09/20 00:48:05;;;;;;;1.55;1.25;;;;;;;24.80;82.03;97047.34;5063310;28;20448;-88
2023/09/20 00:50:49;;;;;;;3.88;1.73;;;;;;;25.20;81.29;97056.53;5067283;28;20035;-90
2023/09/20 00:53:35;;;;;;;2.50;1.42;;;;;;;25.85;79.81;97067.50;5067574;28;20043;-87
2023/09/20 00:56:20;;;;;;;2.63;1.40;;;;;;;25.31;80.87;97067.59;5056201;28;20035;-88
2023/09/20 00:59:06;;;;;;;4.88;1.20;;;;;;;25.35;81.72;97048.88;5059839;28;20395;-88
2023/09/20 01:01:52;;;;;;;3.63;1.55;;;;;;;25.27;82.27;97049.81;5058666;28;20035;-88
2023/09/20 01:04:37;;;;;;;2.38;1.10;;;;;;;25.38;81.77;97050.91;5064718;28;20101;-89
2023/09/20 01:07:22;;;;;;;2.70;1.30;;;;;;;25.14;81.92;97038.31;5070523;28;20568;-88
2023/09/20 01:10:09;;;;;;;1.42;1.33;;;;;;;24.91;82.79;97046.88;5070197;28;20357;-90
2023/09/20 01:12:56;;;;;;;2.42;1.17;;;;;;;24.88;82.90;97042.97;5063180;28;20040;-89
2023/09/20 01:15:41;;;;;;;2.72;1.23;;;;;;;24.82;82.82;97030.91;5064878;28;20079;-90
2023/09/20 01:18:27;;;;;;;3.10;1.20;;;;;;;25.63;81.44;97030.09;5068656;28;20095;-90
2023/09/20 01:21:14;;;;;;;2.72;1.30;;;;;;;25.22;82.00;97022.09;5068032;28;20048;-90
2023/09/20 01:23:59;;;;;;;2.80;1.30;;;;;;;25.14;81.95;97017.63;5078378;28;20075;-89
2023/09/20 01:26:45;;;;;;;3.63;1.90;;;;;;;25.67;81.04;97011.38;5061347;28;20040;-89
2023/09/20 01:29:29;;;;;;;1.98;1.20;;;;;;;25.13;82.37;97002.63;5058962;28;20052;-89
2023/09/20 01:32:15;;;;;;;3.97;1.23;;;;;;;25.37;81.77;96995.63;5070313;28;20040;-90
2023/09/20 01:34:59;;;;;;;3.92;1.15;;;;;;;25.38;81.97;96997.97;5077914;28;20044;-89
2023/09/20 01:37:44;;;;;;;2.40;1.00;;;;;;;25.31;82.01;97003.16;5070755;28;20124;-89
2023/09/20 01:40:33;;;;;;;1.92;1.17;;;;;;;25.09;82.28;96996.41;5063209;28;20136;-90
2023/09/20 01:43:17;;;;;;;4.15;1.17;;;;;;;25.26;82.45;97005.28;5076306;28;20098;-90
2023/09/20 01:46:02;;;;;;;1.65;1.00;;;;;;;25.31;82.54;96988.94;5079825;28;20051;-89
2023/09/20 01:48:47;;;;;;;3.60;1.20;;;;;;;25.33;82.67;97000.09;5064951;28;20047;-89
2023/09/20 01:51:31;;;;;;;3.33;1.30;;;;;;;25.00;83.67;96988.47;5069656;28;20038;-88
2023/09/20 01:54:16;;;;;;;1.83;1.02;;;;;;;25.07;84.05;96987.91;5080357;28;20047;-89
2023/09/20 01:57:00;;;;;;;3.38;1.20;;;;;;;25.10;84.13;96982.66;5074722;28;20040;-88
2023/09/20 01:59:45;;;;;;;1.58;0.80;;;;;;;24.86;85.39;96977.34;5067038;28;20047;-89
2023/09/20 02:02:29;;;;;;;1.73;1.13;;;;;;;24.54;87.22;96967.22;5079457;28;20422;-89
2023/09/20 02:05:14;;;;;;;2.55;1.38;;;;;;;24.81;87.13;96973.00;5059153;28;20439;-88
2023/09/20 02:07:58;;;;;;;1.75;0.90;;;;;;;24.49;87.53;96967.44;5058159;28;20103;-88
2023/09/20 02:10:43;;;;;;;1.95;1.02;;;;;;;24.76;87.95;96967.84;5066425;28;20039;-87
2023/09/20 02:13:27;;;;;;;3.00;1.08;;;;;;;24.27;89.59;96958.75;5062387;28;20078;-87
2023/09/20 02:16:11;;;;;;;1.08;0.82;;;;;;;24.73;88.80;96963.16;5062821;28;20047;-88
2023/09/20 02:18:55;;;;;;;2.45;0.90;;;;;;;24.68;88.94;96943.50;5065778;28;20103;-89
2023/09/20 02:21:39;;;;;;;1.60;0.70;;;;;;;24.37;89.91;96944.13;5056918;28;20040;-88
2023/09/20 02:24:23;;;;;;;2.60;0.98;;;;;;;24.18;90.80;96932.06;5064653;28;20046;-85
2023/09/20 02:27:08;;;;;;;1.00;0.90;;;;;;;24.56;89.76;96967.66;5062112;28;20098;-86
2023/09/20 02:29:54;;;;;;;1.42;0.70;;;;;;;23.94;91.74;96930.94;5062817;28;20068;-85
2023/09/20 02:32:38;;;;;;;0.80;0.75;;;;;;;24.37;91.62;96942.22;5062418;28;20035;-85
2023/09/20 02:35:25;;;;;;;2.70;0.90;;;;;;;24.14;92.11;96933.06;5064834;28;20116;-86
2023/09/20 02:38:09;;;;;;;1.15;0.80;;;;;;;24.66;91.36;96923.47;5062648;28;20403;-87
2023/09/20 02:40:55;;;;;;;0.52;0.52;;;;;;;24.43;91.45;96912.50;5064705;28;20093;-86
2023/09/20 02:43:40;;;;;;;1.27;0.75;;;;;;;24.67;90.86;96922.38;5067548;28;20271;-86
2023/09/20 02:46:24;;;;;;;1.27;0.93;;;;;;;24.16;92.08;96925.47;5065071;28;20066;-85
2023/09/20 02:49:08;;;;;;;0.50;0.50;;;;;;;24.50;91.52;96926.91;5065378;28;20055;-86
2023/09/20 02:51:52;;;;;;;1.75;0.70;;;;;;;24.12;92.83;96908.50;5061964;28;20106;-87
2023/09/20 02:54:36;;;;;;;2.00;0.80;;;;;;;24.29;92.19;96913.63;5061602;28;20402;-88
2023/09/20 02:57:20;;;;;;;1.15;0.70;;;;;;;24.10;92.85;96911.53;5062281;28;20466;-87
2023/09/20 03:00:16;;;;;;;2.13;0.63;;;;;;;24.49;92.09;96897.72;5064957;28;20093;-86
2023/09/20 03:03:02;;;;;;;0.70;0.60;;;;;;;24.95;90.22;96887.53;5056881;28;20040;-85
2023/09/20 03:05:46;;;;;;;0.93;0.60;;;;;;;24.41;91.51;96874.53;5056452;28;20406;-89
2023/09/20 03:08:30;;;;;;;0.77;0.60;;;;;;;24.18;91.92;96845.53;5065108;28;20089;-86
2023/09/20 03:11:21;;;;;;;0.60;0.60;;;;;;;24.26;91.95;96844.63;5067374;28;20147;-86
2023/09/20 03:14:08;;;;;;;0.70;0.70;;;;;;;24.33;91.98;96866.25;5064180;28;20047;-86
2023/09/20 03:16:52;;;;;;;0.82;0.60;;;;;;;24.13;92.17;96857.25;5055729;28;20102;-84
2023/09/20 03:19:36;;;;;;;0.93;0.70;;;;;;;24.46;90.87;96858.94;5057957;28;20044;-86
2023/09/20 03:22:21;;;;;;;1.58;1.13;;;;;;;24.13;92.40;96873.34;5060998;28;20460;-86
2023/09/20 03:25:09;;;;;;;1.75;1.05;;;;;;;24.67;90.55;96880.25;5062826;28;20110;-85
2023/09/20 03:27:54;;;;;;;1.38;0.88;;;;;;;24.38;90.77;96871.41;5057892;28;20444;-88
2023/09/20 03:30:39;;;;;;;1.20;1.10;;;;;;;24.77;89.85;96884.38;5059421;28;20036;-87
2023/09/20 03:33:23;;;;;;;1.02;0.80;;;;;;;24.91;89.16;96875.91;5061670;28;20544;-88
2023/09/20 03:36:15;;;;;;;1.92;1.10;;;;;;;24.95;88.51;96894.81;5063571;28;20186;-88
2023/09/20 03:38:59;;;;;;;2.67;1.20;;;;;;;24.90;88.75;96892.38;5055918;28;20048;-90
2023/09/20 03:41:44;;;;;;;1.52;1.40;;;;;;;24.98;88.61;96894.13;5055637;28;20103;-86
2023/09/20 03:44:28;;;;;;;3.47;1.42;;;;;;;24.69;89.83;96904.06;5055242;28;20079;-88
2023/09/20 03:47:12;;;;;;;2.80;1.25;;;;;;;24.85;89.19;96869.25;5054762;28;20087;-89
2023/09/20 03:49:55;;;;;;;3.25;1.40;;;;;;;24.98;88.59;96871.88;5067559;28;20087;-88
2023/09/20 03:52:40;;;;;;;2.42;1.40;;;;;;;24.48;90.59;96858.63;5060881;28;20574;-88
2023/09/20 03:55:24;;;;;;;2.60;1.80;;;;;;;24.94;89.04;96861.06;5066009;28;20402;-87
2023/09/20 03:58:08;;;;;;;4.25;2.03;;;;;;;24.88;88.76;96847.09;5069319;28;20039;-89
2023/09/20 04:00:52;;;;;;;3.47;1.55;;;;;;;24.67;89.04;96852.66;5055768;28;20102;-87
2023/09/20 04:03:36;;;;;;;3.67;1.70;;;;;;;24.64;89.25;96854.09;5068813;28;20090;-87
2023/09/20 04:06:20;;;;;;;4.15;2.00;;;;;;;24.81;88.70;96847.69;5056966;28;20060;-89
2023/09/20 04:09:09;;;;;;;3.63;1.67;;;;;;;24.87;88.96;96856.28;5057057;28;20086;-87
2023/09/20 04:11:53;;;;;;;6.05;2.20;;;;;;;24.67;89.67;96852.66;5067955;28;20040;-88
2023/09/20 04:14:38;;;;;;;3.22;1.98;;;;;;;24.82;89.28;96848.47;5065780;28;20090;-87
2023/09/20 04:17:25;;;;;;;5.45;2.25;;;;;;;25.12;88.28;96837.34;5072201;28;20075;-87
2023/09/20 04:20:11;;;;;;;2.42;1.88;;;;;;;24.24;89.67;96825.41;5062416;28;20047;-87
2023/09/20 04:22:55;;;;;;;4.05;1.90;;;;;;;24.96;88.90;96826.59;5059560;28;20166;-86
2023/09/20 04:25:39;;;;;;;6.43;2.33;;;;;;;24.85;88.56;96810.22;5062443;28;20509;-87
2023/09/20 04:28:23;;;;;;;6.68;2.13;;;;;;;24.75;88.67;96795.41;5067793;28;20161;-88
2023/09/20 04:31:08;;;;;;;3.78;2.03;;;;;;;24.74;88.65;96807.22;5050729;28;20039;-86
2023/09/20 04:33:53;;;;;;;5.75;2.50;;;;;;;24.49;88.52;96803.88;5067286;28;20055;-86
2023/09/20 04:36:36;;;;;;;6.72;2.30;;;;;;;24.74;88.31;96783.09;5065463;28;20118;-85
2023/09/20 04:39:21;;;;;;;4.90;2.50;;;;;;;24.87;88.25;96802.59;5061207;28;20048;-86
2023/09/20 04:42:07;;;;;;;6.95;2.33;;;;;;;25.00;87.55;96784.53;5061074;28;20043;-85
2023/09/20 04:44:51;;;;;;;6.07;2.58;;;;;;;24.88;87.82;96801.47;5055089;28;20044;-86
2023/09/20 04:47:36;;;;;;;5.40;2.30;;;;;;;24.91;87.74;96803.47;5067153;28;20055;-87
2023/09/20 04:50:21;;;;;;;6.35;2.85;;;;;;;24.90;86.93;96785.81;5060504;28;20055;-87
2023/09/20 04:53:04;;;;;;;5.88;2.20;;;;;;;25.21;86.47;96800.38;5064623;28;20097;-84
2023/09/20 04:55:49;;;;;;;5.85;2.70;;;;;;;24.85;87.04;96794.13;5066336;28;20048;-86
2023/09/20 04:58:33;;;;;;;7.00;2.80;;;;;;;24.75;87.61;96767.75;5055603;28;20094;-86
2023/09/20 05:01:17;;;;;;;4.88;2.25;;;;;;;24.34;87.78;96751.78;5060719;28;20051;-88
2023/09/20 05:04:05;;;;;;;7.13;2.67;;;;;;;24.77;87.04;96782.44;5060399;28;20087;-85
2023/09/20 05:06:49;;;;;;;5.32;2.85;;;;;;;24.65;87.42;96780.56;5064573;28;20390;-86
2023/09/20 05:09:35;;;;;;;6.38;2.40;;;;;;;24.68;87.04;96779.09;5069038;28;20102;-86
2023/09/20 05:12:19;;;;;;;8.40;2.78;;;;;;;24.72;87.25;96773.81;5062791;28;20027;-86
2023/09/20 05:15:04;;;;;;;6.90;2.92;;;;;;;24.69;87.49;96764.56;5059587;28;20166;-86
2023/09/20 05:17:49;;;;;;;7.25;3.17;;;;;;;24.67;87.21;96772.94;5060234;28;20127;-86
2023/09/20 05:20:33;;;;;;;7.70;3.20;;;;;;;24.88;86.83;96773.88;5065011;28;20105;-87
2023/09/20 05:23:17;;;;;;;7.38;3.28;;;;;;;24.27;88.44;96779.16;5058358;28;20520;-88
2023/09/20 05:26:02;;;;;;;8.63;3.58;;;;;;;24.17;88.85;96790.34;5059810;28;20043;-88
2023/09/20 05:28:47;;;;;;;7.47;3.58;;;;;;;24.70;88.39;96794.84;5062184;28;20040;-87
2023/09/20 05:31:32;;;;;;;7.32;3.90;;;;;;;24.75;87.62;96794.59;5061123;28;20039;-89
2023/09/20 05:34:17;;;;;;;9.20;3.33;;;;;;;24.58;88.47;96795.69;5062183;28;20097;-88
2023/09/20 05:37:01;;;;;;;6.75;3.35;;;;;;;24.18;89.44;96797.28;5061747;28;20052;-87
2023/09/20 05:39:48;;;;;;;13.80;4.05;;;;;;;24.82;87.58;96789.44;5064377;28;20091;-90
2023/09/20 05:42:32;;;;;;;9.73;4.05;;;;;;;24.87;87.60;96783.06;5063858;28;20120;-88
2023/09/20 05:45:19;;;;;;;11.50;3.70;;;;;;;24.94;87.26;96783.22;5061528;28;20035;-88
2023/09/20 05:48:03;;;;;;;11.23;4.32;;;;;;;24.73;87.93;96788.78;5067260;28;20047;-89
2023/09/20 05:50:49;;;;;;;7.53;3.85;;;;;;;24.79;87.99;96803.56;5059181;28;20142;-89
2023/09/20 05:53:34;;;;;;;9.57;3.78;;;;;;;24.58;88.13;96796.47;5051882;28;20103;-87
2023/09/20 05:56:18;;;;;;;9.95;4.03;;;;;;;24.72;88.06;96816.72;5049822;28;20080;-88
2023/09/20 05:59:04;;;;;;;9.65;4.15;;;;;;;24.22;89.34;96822.28;5062503;28;20091;-89
2023/09/20 06:01:48;;;;;;;8.20;4.10;;;;;;;24.42;89.19;96825.91;5060429;28;20048;-87
2023/09/20 06:04:32;;;;;;;11.38;4.25;;;;;;;24.63;88.88;96824.94;5053688;28;20099;-86
2023/09/20 06:07:16;;;;;;;7.95;4.78;;;;;;;24.74;88.35;96815.28;5058032;28;20564;-87
2023/09/20 06:10:01;;;;;;;12.75;5.13;;;;;;;24.46;89.14;96816.03;5058221;28;20497;-89
2023/09/20 06:12:46;;;;;;;15.60;5.68;;;;;;;24.10;90.06;96813.16;5063309;28;20597;-87
2023/09/20 06:15:30;;;;;;;11.75;5.47;;;;;;;24.24;90.07;96826.19;5061119;28;20048;-89
2023/09/20 06:18:15;;;;;;;14.82;5.97;;;;;;;24.78;90.32;96826.91;5064428;28;20067;-89
2023/09/20 06:21:00;;;;;;;11.63;5.65;;;;;;;24.98;100.00;96843.13;5065022;28;20044;-87
2023/09/20 06:23:44;;;;;;;17.77;6.53;;;;;;;25.79;100.00;96834.00;5061687;28;20040;-88
2023/09/20 06:26:28;;;;;;;15.27;6.72;;;;;;;25.36;100.00;96839.09;5062550;28;20051;-88
2023/09/20 06:29:13;;;;;;;10.98;5.82;;;;;;;25.13;100.00;96843.50;5062079;28;20049;-85
2023/09/20 06:31:57;;;;;;;15.13;6.65;;;;;;;25.18;100.00;96827.13;5059998;28;20091;-85
2023/09/20 06:34:42;;;;;;;15.02;6.60;;;;;;;25.07;100.00;96843.75;5054987;28;20072;-85
2023/09/20 06:37:29;;;;;;;14.75;6.68;;;;;;;25.15;100.00;96844.69;5063308;28;20600;-86
2023/09/20 06:43:11;;;;;;;11.15;5.53;;;;;;;24.95;100.00;96825.81;5070303;28;20449;-89
2023/09/20 06:45:57;;;;;;;11.80;5.70;;;;;;;24.87;99.91;96813.34;5059761;28;20095;-84
2023/09/20 06:48:51;;;;;;;12.10;5.55;;;;;;;24.67;100.00;96810.50;5054833;28;20051;-83
2023/09/20 06:51:35;;;;;;;11.35;5.28;;;;;;;24.92;100.00;96813.06;5059138;28;20052;-83
2023/09/20 06:54:20;;;;;;;13.05;5.30;;;;;;;24.71;100.00;96807.91;5059500;28;20142;-81
2023/09/20 06:57:05;;;;;;;14.90;5.30;;;;;;;24.73;100.00;96792.25;5055597;28;20162;-84
2023/09/20 06:59:52;;;;;;;11.70;4.97;;;;;;;25.08;99.32;96791.66;5061778;28;20485;-82
2023/09/20 07:02:36;;;;;;;9.68;5.47;;;;;;;24.89;99.23;96799.59;5060017;28;20060;-86
2023/09/20 07:05:24;;;;;;;9.75;5.13;;;;;;;24.45;100.00;96778.88;5062705;28;20186;-88
2023/09/20 07:08:09;;;;;;;12.73;5.07;;;;;;;24.72;99.81;96763.09;5057266;28;20063;-86
2023/09/20 07:10:53;;;;;;;9.60;4.50;;;;;;;24.52;99.99;96771.00;5059646;28;20056;-85
2023/09/20 07:13:37;;;;;;;8.15;4.30;;;;;;;24.99;99.16;96766.09;5061914;28;20043;-88
2023/09/20 07:16:21;;;;;;;8.65;4.93;;;;;;;24.64;99.93;96783.56;5064927;28;20052;-87
2023/09/20 07:19:06;;;;;;;10.98;5.18;;;;;;;24.72;99.46;96812.16;5066569;28;20039;-89
2023/09/20 07:21:50;;;;;;;8.88;5.30;;;;;;;24.44;100.00;96802.22;5063037;28;20039;-85
2023/09/20 07:24:35;;;;;;;11.52;6.28;;;;;;;24.55;100.00;96820.50;5060616;28;20510;-90
2023/09/20 07:27:19;;;;;;;13.85;6.25;;;;;;;24.46;100.00;96817.97;5056364;28;20035;-87
2023/09/20 07:30:08;;;;;;;13.23;7.05;;;;;;;24.75;99.56;96832.13;5060614;28;20402;-86
2023/09/20 07:32:52;;;;;;;14.43;7.03;;;;;;;24.67;98.91;96817.78;5060517;28;20043;-83
2023/09/20 07:35:39;;;;;;;12.23;6.90;;;;;;;24.94;98.23;96818.88;5061105;28;20051;-83
2023/09/20 07:38:26;;;;;;;15.02;7.00;;;;;;;25.09;98.41;96820.03;5059595;28;20574;-82
2023/09/20 07:41:14;;;;;;;14.90;8.65;;;;;;;24.57;99.17;96816.38;5060599;28;20472;-84
2023/09/20 07:43:58;;;;;;;17.25;7.03;;;;;;;24.81;98.39;96798.63;5056570;28;20044;-84
2023/09/20 07:46:44;;;;;;;13.85;6.85;;;;;;;25.09;97.52;96800.47;5062315;28;20529;-84
2023/09/20 07:49:29;;;;;;;15.68;6.60;;;;;;;24.92;97.44;96802.34;5060001;28;20509;-83
2023/09/20 07:52:13;;;;;;;16.52;7.78;;;;;;;24.50;99.64;96795.50;5057714;28;20509;-85
2023/09/20 07:54:57;;;;;;;10.68;6.93;;;;;;;24.72;98.71;96787.22;5060678;28;20055;-85
2023/09/20 07:57:42;;;;;;;13.38;7.03;;;;;;;24.67;97.78;96770.25;5059350;28;20082;-84
2023/09/20 08:00:27;;;;;;;21.40;7.85;;;;;;;24.88;97.31;96750.50;5063434;28;20140;-85
2023/09/20 08:03:11;;;;;;;12.85;6.63;;;;;;;24.44;98.90;96737.09;5055634;28;20075;-85
2023/09/20 08:05:56;;;;;;;14.02;6.60;;;;;;;24.63;98.50;96713.06;5062948;28;20093;-85
2023/09/20 08:08:40;;;;;;;9.52;6.38;;;;;;;24.72;97.78;96683.41;5060665;28;20075;-84
2023/09/20 08:11:26;;;;;;;12.27;5.95;;;;;;;24.51;97.46;96667.56;5061327;28;20090;-85
2023/09/20 08:14:10;;;;;;;12.18;5.80;;;;;;;24.96;96.34;96670.97;5061287;28;20125;-83
2023/09/20 08:19:58;;;;;;;10.98;4.80;;;;;;;25.38;93.96;96672.28;5061356;28;20052;-85
2023/09/20 09:02:27;;;;;;;13.88;7.43;;;;;;;25.09;93.97;96715.38;5061663;28;20136;-83
2023/09/20 09:05:12;;;;;;;20.70;8.70;;;;;;;25.28;93.34;96718.44;5059564;28;20039;-84
2023/09/20 09:07:59;;;;;;;18.95;8.80;;;;;;;25.28;93.08;96697.78;5058188;28;20446;-84
2023/09/20 09:10:42;;;;;;;16.48;6.95;;;;;;;25.07;93.58;96716.84;5061113;28;20039;-83
2023/09/20 09:13:28;;;;;;;19.92;8.32;;;;;;;24.98;93.68;96700.13;5064019;28;20055;-82
2023/09/20 09:16:15;;;;;;;16.67;7.82;;;;;;;25.38;93.28;96691.84;5058061;28;20055;-83
2023/09/20 09:19:00;;;;;;;18.52;7.97;;;;;;;25.37;92.32;96684.16;5057769;28;20090;-84
2023/09/20 09:21:44;;;;;;;14.50;7.25;;;;;;;24.64;97.27;96679.78;5054429;28;20048;-83
2023/09/20 09:24:41;;;;;;;19.35;7.68;;;;;;;25.29;95.02;96693.94;5060991;28;20099;-84
2023/09/20 09:27:25;;;;;;;15.90;7.80;;;;;;;25.74;93.51;96683.78;5058207;28;20086;-85
2023/09/20 09:30:12;;;;;;;15.65;7.45;;;;;;;25.95;92.89;96680.00;5060398;28;20051;-84
2023/09/20 09:32:57;;;;;;;18.95;8.20;;;;;;;26.04;92.74;96688.59;5060482;28;20559;-84
2023/09/20 09:35:45;;;;;;;16.25;7.28;;;;;;;25.95;93.22;96683.44;5055554;28;20035;-85
2023/09/20 09:38:33;;;;;;;13.73;6.10;;;;;;;25.73;94.57;96651.91;5056426;28;20055;-84
2023/09/20 09:41:18;;;;;;;8.93;5.70;;;;;;;26.13;92.79;96674.16;5054818;28;20151;-83
2023/09/20 09:44:04;;;;;;;10.20;4.82;;;;;;;26.46;91.55;96680.94;5064067;28;20600;-83
2023/09/20 09:46:49;;;;;;;7.85;3.90;;;;;;;25.69;92.98;96657.22;5064270;28;20067;-84
2023/09/20 09:49:33;;;;;;;7.28;4.00;;;;;;;26.19;91.22;96656.66;5055913;28;20505;-84
2023/09/20 09:52:18;;;;;;;7.75;3.35;;;;;;;25.98;91.73;96665.06;5064291;28;20039;-83
2023/09/20 09:55:03;;;;;;;5.55;3.13;;;;;;;25.84;91.58;96658.25;5059905;28;20098;-84
2023/09/20 09:57:47;;;;;;;5.65;3.60;;;;;;;25.91;91.92;96660.31;5063155;28;20055;-85
2023/09/20 10:00:33;;;;;;;7.13;3.50;;;;;;;26.17;91.51;96661.59;5060993;28;20097;-84
2023/09/20 10:03:29;;;;;;;7.22;3.75;;;;;;;26.07;92.04;96655.63;5063435;28;20040;-84
2023/09/20 10:06:28;;;;;;;9.75;3.22;;;;;;;26.03;93.12;96637.88;5061515;28;20102;-83
2023/09/20 10:09:14;;;;;;;5.22;3.75;;;;;;;26.04;92.40;96642.13;5062790;28;20426;-85
2023/09/20 10:11:58;;;;;;;6.07;4.05;;;;;;;26.21;91.86;96644.38;5059518;28;20056;-83
2023/09/20 10:14:43;;;;;;;7.05;3.83;;;;;;;25.97;92.45;96632.03;5065275;28;20119;-85
2023/09/20 10:17:30;;;;;;;8.45;4.22;;;;;;;25.84;91.24;96636.00;5060786;28;20395;-84
2023/09/20 10:20:16;;;;;;;8.82;4.55;;;;;;;25.86;92.08;96631.84;5063763;28;20101;-84
2023/09/20 10:23:04;;;;;;;6.55;3.63;;;;;;;25.96;91.91;96627.78;5062102;28;20063;-85
2023/09/20 10:25:48;;;;;;;8.10;4.95;;;;;;;25.99;91.87;96621.72;5060958;28;20079;-84
2023/09/20 10:28:39;;;;;;;13.18;5.43;;;;;;;25.95;91.81;96629.69;5057138;28;20121;-84
2023/09/20 10:31:25;;;;;;;10.35;4.88;;;;;;;25.71;92.04;96608.50;5065679;28;20035;-84
2023/09/20 10:34:09;;;;;;;10.48;4.75;;;;;;;26.16;90.89;96608.94;5057134;28;20117;-85
2023/09/20 10:36:54;;;;;;;9.32;4.43;;;;;;;25.76;91.59;96598.25;5060852;28;20097;-82
2023/09/20 10:39:46;;;;;;;7.72;4.80;;;;;;;25.90;91.04;96607.69;5063147;28;20101;-85
2023/09/20 10:42:31;;;;;;;6.50;4.20;;;;;;;26.09;89.39;96583.47;5061042;28;20125;-83
2023/09/20 10:45:17;;;;;;;9.27;4.32;;;;;;;26.78;89.05;96599.97;5056878;28;20043;-83
2023/09/20 10:48:06;;;;;;;8.30;4.72;;;;;;;26.18;88.79;96585.19;5056828;28;20068;-82
2023/09/20 10:50:57;;;;;;;7.68;3.92;;;;;;;26.38;89.54;96610.09;5058062;28;20540;-83
2023/09/20 10:53:41;;;;;;;9.32;4.82;;;;;;;26.49;88.60;96600.31;5060663;28;20452;-82
2023/09/20 10:56:51;;;;;;;5.70;3.90;;;;;;;26.54;89.31;96595.75;5061500;28;20118;-83
2023/09/20 10:59:37;;;;;;;10.05;4.38;;;;;;;26.80;88.55;96592.31;5061256;28;20074;-83
2023/09/20 11:02:25;;;;;;;9.23;4.75;;;;;;;26.32;88.96;96592.72;5056991;28;20087;-83
2023/09/20 11:05:11;;;;;;;8.35;4.18;;;;;;;26.85;88.21;96588.53;5058749;28;20040;-83
2023/09/20 11:07:55;;;;;;;7.80;4.28;;;;;;;26.41;89.21;96587.09;5061416;28;20044;-82
2023/09/20 11:10:40;;;;;;;7.45;4.25;;;;;;;26.90;87.45;96574.78;5065912;28;20090;-82
2023/09/20 11:13:24;;;;;;;7.90;3.75;;;;;;;26.58;87.60;96570.47;5062382;28;20560;-83
2023/09/20 11:16:09;;;;;;;6.32;3.60;;;;;;;26.55;87.24;96565.81;5057773;28;20046;-83
2023/09/20 11:18:54;;;;;;;10.20;4.05;;;;;;;26.46;88.26;96579.50;5067251;28;20047;-83
2023/09/20 11:21:40;;;;;;;8.68;3.90;;;;;;;26.28;88.08;96563.06;5059582;28;20526;-83
2023/09/20 11:24:27;;;;;;;8.85;3.53;;;;;;;26.10;92.06;96574.28;5059641;28;20054;-83
2023/09/20 11:27:13;;;;;;;7.07;3.15;;;;;;;26.43;89.63;96574.06;5064120;28;20151;-81
2023/09/20 11:30:31;;;;;;;8.05;3.50;;;;;;;26.76;89.10;96581.50;5056145;28;20035;-82
2023/09/20 11:33:28;;;;;;;7.80;3.47;;;;;;;26.48;89.32;96576.44;5060279;28;20079;-83
2023/09/20 11:36:19;;;;;;;7.82;3.17;;;;;;;26.64;89.59;96576.31;5060472;28;20110;-82
2023/09/20 11:39:04;;;;;;;6.70;3.78;;;;;;;26.58;89.19;96583.13;5054695;28;20091;-83
2023/09/20 11:41:48;;;;;;;12.88;3.78;;;;;;;26.88;89.46;96583.22;5057758;28;20183;-82
2023/09/20 11:44:35;;;;;;;8.38;4.00;;;;;;;26.84;89.11;96587.75;5056839;28;20441;-82
2023/09/20 11:47:19;;;;;;;5.93;3.95;;;;;;;26.64;89.90;96587.09;5066241;28;20067;-83
2023/09/20 11:50:05;;;;;;;7.88;3.80;;;;;;;26.67;89.36;96576.34;5060948;28;20072;-82
2023/09/20 11:52:49;;;;;;;7.28;4.28;;;;;;;26.80;89.73;96581.53;5057135;28;20544;-83
2023/09/20 11:55:33;;;;;;;11.95;4.65;;;;;;;27.03;89.45;96588.81;5062131;28;20105;-83
2023/09/20 11:58:20;;;;;;;10.50;4.75;;;;;;;27.08;89.91;96591.19;5063054;28;20178;-84
2023/09/20 12:01:08;;;;;;;9.77;4.53;;;;;;;26.91;90.25;96581.72;5061296;28;20047;-83
2023/09/20 12:03:52;;;;;;;4.38;3.70;;;;;;;26.78;90.06;96581.13;5061611;28;20062;-83
2023/09/20 12:06:36;;;;;;;9.25;4.05;;;;;;;27.05;90.59;96594.59;5061792;28;20439;-84
2023/09/20 12:09:21;;;;;;;9.63;3.58;;;;;;;26.45;90.80;96604.84;5061053;28;20048;-83
2023/09/20 12:12:06;;;;;;;5.85;2.55;;;;;;;26.14;92.70;96613.88;5058889;28;20195;-83
2023/09/20 12:14:50;;;;;;;1.65;1.05;;;;;;;25.42;91.48;96622.13;5060934;28;20402;-82
2023/09/20 12:17:34;;;;;;;4.50;1.05;;;;;;;25.57;89.79;96639.31;5060920;28;20098;-83
2023/09/20 12:20:18;;;;;;;2.95;1.02;;;;;;;24.73;91.23;96635.88;5058034;28;20124;-84
2023/09/20 12:23:05;;;;;;;3.15;0.93;;;;;;;24.24;90.88;96616.34;5059072;28;20519;-82
2023/09/20 12:25:49;;;;;;;2.83;0.80;;;;;;;25.37;89.12;96611.66;5058331;28;20040;-82
2023/09/20 12:28:33;;;;;;;1.65;0.80;;;;;;;25.12;91.28;96624.53;5061425;28;20040;-84
2023/09/20 12:31:23;;;;;;;2.33;0.80;;;;;;;25.23;89.43;96626.31;5056599;28;20075;-83
2023/09/20 12:34:07;;;;;;;0.88;0.68;;;;;;;25.59;88.40;96626.31;5060025;28;20095;-83
2023/09/20 12:36:51;;;;;;;2.72;0.73;;;;;;;25.67;88.81;96619.97;5058018;28;20051;-82
2023/09/20 12:39:36;;;;;;;3.15;1.10;;;;;;;25.98;88.13;96622.06;5062931;28;20071;-83
2023/09/20 12:42:23;;;;;;;1.75;0.80;;;;;;;26.47;86.92;96624.09;5061676;28;20548;-83
2023/09/20 12:45:08;;;;;;;1.15;0.90;;;;;;;26.53;86.51;96629.97;5058476;28;20418;-82
2023/09/20 12:47:53;;;;;;;2.95;1.00;;;;;;;25.98;86.30;96625.53;5058506;28;20405;-83
2023/09/20 12:50:37;;;;;;;4.25;1.30;;;;;;;26.17;84.68;96642.78;5061126;28;20081;-82
2023/09/20 12:53:23;;;;;;;2.85;1.00;;;;;;;26.21;83.74;96639.00;5057107;28;20110;-82
2023/09/20 12:56:09;;;;;;;6.00;1.55;;;;;;;26.30;84.06;96641.47;5058437;28;20051;-83
2023/09/20 12:58:53;;;;;;;6.32;1.20;;;;;;;26.40;83.36;96655.47;5061519;28;20074;-82
2023/09/20 13:01:38;;;;;;;3.17;1.48;;;;;;;26.34;82.41;96663.06;5052340;28;20075;-83
2023/09/20 13:04:23;;;;;;;4.22;1.38;;;;;;;25.57;81.17;96643.94;5057566;28;20099;-83
2023/09/20 13:07:08;;;;;;;5.80;1.20;;;;;;;26.11;81.30;96647.66;5061785;28;20043;-82
2023/09/20 13:09:52;;;;;;;7.95;1.80;;;;;;;25.88;80.93;96634.16;5058989;28;20105;-83
2023/09/20 13:12:38;;;;;;;5.25;1.58;;;;;;;25.70;79.48;96634.56;5059075;28;20075;-83
2023/09/20 13:15:22;;;;;;;4.63;1.40;;;;;;;25.12;80.06;96646.78;5059839;28;20501;-82
2023/09/20 13:18:09;;;;;;;3.67;1.20;;;;;;;25.41;78.89;96650.09;5060996;28;20102;-82
2023/09/20 13:20:58;;;;;;;4.93;1.20;;;;;;;25.72;77.99;96671.84;5066245;28;20488;-83
2023/09/20 13:23:42;;;;;;;4.03;1.58;;;;;;;25.32;76.41;96662.94;5060179;28;20086;-83
2023/09/20 13:26:26;;;;;;;4.55;1.40;;;;;;;25.92;76.18;96659.97;5063769;28;20090;-83
2023/09/20 13:29:13;;;;;;;3.10;1.08;;;;;;;26.29;73.37;96687.56;5057755;28;20106;-83
2023/09/20 13:31:57;;;;;;;6.63;1.58;;;;;;;25.47;75.30;96667.50;5056050;28;20128;-83
2023/09/20 13:34:42;;;;;;;5.10;2.08;;;;;;;24.79;74.51;96661.38;5059895;28;20082;-82
2023/09/20 13:37:27;;;;;;;8.20;1.67;;;;;;;24.00;74.42;96674.28;5061592;28;20059;-83
2023/09/20 13:40:17;;;;;;;4.63;1.80;;;;;;;24.31;74.38;96651.34;5052979;28;20398;-82
2023/09/20 13:43:03;;;;;;;3.78;1.60;;;;;;;24.16;74.73;96650.22;5059587;28;20039;-83